createdAt,value
2022-12-06T00:02:21.522Z,16.48
2022-12-06T00:05:07.948Z,16.75
2022-12-06T00:07:54.589Z,17.33
2022-12-06T00:10:40.539Z,15.85
2022-12-06T00:13:26.384Z,15.20
2022-12-06T00:16:15.343Z,15.18
2022-12-06T00:19:02.478Z,16.30
2022-12-06T00:21:48.359Z,15.30
2022-12-06T00:24:35.158Z,14.95
2022-12-06T00:27:21.122Z,15.00
2022-12-06T00:30:07.851Z,15.43
2022-12-06T00:32:53.620Z,15.23
2022-12-06T00:35:39.502Z,14.63
2022-12-06T00:38:26.696Z,15.30
2022-12-06T00:41:21.319Z,16.58
2022-12-06T00:44:07.603Z,15.93
2022-12-06T00:46:53.738Z,17.83
2022-12-06T00:49:39.624Z,17.10
2022-12-06T00:52:25.696Z,18.73
2022-12-06T00:55:11.368Z,17.67
2022-12-06T00:57:57.405Z,18.55
2022-12-06T01:00:43.503Z,17.83
2022-12-06T01:03:34.878Z,19.10
2022-12-06T01:06:25.997Z,18.02
2022-12-06T01:09:12.704Z,16.38
2022-12-06T01:11:58.542Z,13.00
2022-12-06T01:14:43.861Z,13.43
2022-12-06T01:17:29.377Z,14.27
2022-12-06T01:20:15.199Z,14.07
2022-12-06T01:23:00.707Z,13.82
2022-12-06T01:25:51.531Z,12.82
2022-12-06T01:28:37.437Z,13.50
2022-12-06T01:31:23.545Z,13.68
2022-12-06T01:34:15.162Z,14.55
2022-12-06T01:37:01.223Z,13.77
2022-12-06T01:39:46.613Z,13.45
2022-12-06T01:42:32.431Z,14.05
2022-12-06T01:45:18.126Z,13.23
2022-12-06T01:48:03.853Z,12.73
2022-12-06T01:50:49.543Z,13.25
2022-12-06T01:53:36.312Z,12.15
2022-12-06T01:56:23.042Z,11.75
2022-12-06T01:59:09.997Z,11.68
2022-12-06T02:01:56.229Z,10.90
2022-12-06T02:04:43.485Z,11.30
2022-12-06T02:07:29.899Z,10.25
2022-12-06T02:10:15.502Z,10.73
2022-12-06T02:13:01.575Z,10.40
2022-12-06T02:16:29.178Z,10.35
2022-12-06T02:19:26.270Z,9.90
2022-12-06T02:22:59.645Z,10.27
2022-12-06T02:26:09.071Z,10.05
2022-12-06T02:29:08.860Z,9.82
2022-12-06T02:32:05.916Z,9.98
2022-12-06T02:35:15.371Z,10.13
2022-12-06T02:38:13.486Z,9.95
2022-12-06T02:41:06.598Z,9.18
2022-12-06T02:43:58.164Z,9.70
2022-12-06T02:46:44.576Z,9.65
2022-12-06T02:49:34.816Z,9.60
2022-12-06T02:52:26.420Z,9.75
2022-12-06T02:55:14.251Z,9.40
2022-12-06T02:58:00.083Z,9.45
2022-12-06T03:00:50.569Z,9.57
2022-12-06T03:03:56.639Z,9.98
2022-12-06T03:07:14.812Z,8.73
2022-12-06T03:10:12.811Z,9.45
2022-12-06T03:13:29.633Z,8.95
2022-12-06T03:16:26.736Z,8.50
2022-12-06T03:19:23.275Z,8.80
2022-12-06T03:22:08.797Z,8.88
2022-12-06T03:24:55.397Z,8.73
2022-12-06T03:27:42.387Z,8.50
2022-12-06T03:30:31.531Z,8.93
2022-12-06T03:33:19.612Z,8.32
2022-12-06T03:36:07.593Z,8.77
2022-12-06T03:39:00.935Z,8.43
2022-12-06T03:41:52.646Z,8.80
2022-12-06T03:44:38.524Z,8.07
2022-12-06T03:47:31.254Z,7.30
2022-12-06T03:50:23.003Z,8.43
2022-12-06T03:53:09.231Z,8.45
2022-12-06T03:55:55.163Z,8.30
2022-12-06T03:58:41.022Z,9.25
2022-12-06T04:01:26.456Z,8.35
2022-12-06T04:04:12.291Z,9.18
2022-12-06T04:06:57.971Z,7.80
2022-12-06T04:10:03.591Z,7.53
2022-12-06T04:13:01.201Z,8.82
2022-12-06T04:15:47.505Z,7.82
2022-12-06T04:18:33.044Z,7.95
2022-12-06T04:21:33.777Z,8.38
2022-12-06T04:24:19.720Z,8.95
2022-12-06T04:27:23.539Z,8.30
2022-12-06T04:30:29.284Z,7.53
2022-12-06T04:33:33.624Z,7.82
2022-12-06T04:36:37.636Z,7.47
2022-12-06T04:39:23.785Z,7.05
2022-12-06T04:42:29.771Z,7.70
2022-12-06T04:45:15.517Z,7.20
2022-12-06T04:48:01.001Z,7.40
2022-12-06T04:50:51.079Z,6.90
2022-12-06T04:53:36.532Z,6.95
2022-12-06T04:56:22.463Z,5.00
2022-12-06T04:59:08.047Z,4.85
2022-12-06T05:01:54.138Z,4.55
2022-12-06T05:04:39.996Z,3.80
2022-12-06T05:07:25.689Z,3.55
2022-12-06T05:10:11.667Z,4.60
2022-12-06T05:12:57.516Z,4.15
2022-12-06T05:15:58.440Z,3.45
2022-12-06T05:18:44.098Z,4.15
2022-12-06T05:21:29.807Z,3.78
2022-12-06T05:24:15.496Z,4.40
2022-12-06T05:27:01.282Z,4.00
2022-12-06T05:29:46.795Z,4.90
2022-12-06T05:32:32.450Z,4.55
2022-12-06T05:35:17.933Z,5.15
2022-12-06T05:38:03.894Z,5.50
2022-12-06T05:40:49.587Z,5.80
2022-12-06T05:43:35.330Z,9.57
2022-12-06T05:46:21.045Z,6.55
2022-12-06T05:49:06.676Z,6.45
2022-12-06T05:51:52.463Z,5.85
2022-12-06T05:54:38.359Z,5.75
2022-12-06T05:57:23.743Z,5.78
2022-12-06T06:00:10.005Z,6.25
2022-12-06T06:02:55.692Z,6.93
2022-12-06T06:05:51.644Z,6.32
2022-12-06T06:08:37.118Z,6.72
2022-12-06T06:11:22.620Z,7.05
2022-12-06T06:14:08.480Z,6.03
2022-12-06T06:16:54.057Z,5.93
2022-12-06T06:19:40.060Z,6.10
2022-12-06T06:22:25.723Z,5.90
2022-12-06T06:25:11.188Z,6.70
2022-12-06T06:27:56.587Z,6.57
2022-12-06T06:30:43.003Z,7.30
2022-12-06T06:33:29.039Z,6.68
2022-12-06T06:36:14.669Z,6.60
2022-12-06T06:39:00.277Z,6.20
2022-12-06T06:41:46.832Z,7.55
2022-12-06T06:44:32.867Z,8.27
2022-12-06T06:47:18.465Z,8.77
2022-12-06T06:50:04.407Z,7.55
2022-12-06T06:52:50.418Z,6.55
2022-12-06T06:55:36.229Z,7.45
2022-12-06T06:58:21.875Z,7.43
2022-12-06T07:01:09.314Z,6.68
2022-12-06T07:03:55.104Z,6.13
2022-12-06T07:06:41.278Z,7.00
2022-12-06T07:09:27.246Z,8.63
2022-12-06T07:12:13.770Z,8.65
2022-12-06T07:14:59.175Z,8.50
2022-12-06T07:17:45.114Z,8.63
2022-12-06T07:20:30.836Z,8.48
2022-12-06T07:23:16.712Z,8.20
2022-12-06T07:26:02.266Z,8.45
2022-12-06T07:28:49.350Z,8.15
2022-12-06T07:31:35.453Z,8.57
2022-12-06T07:34:21.059Z,7.90
2022-12-06T07:37:06.613Z,7.93
2022-12-06T07:39:52.226Z,6.72
2022-12-06T07:42:57.236Z,6.38
2022-12-06T07:45:42.735Z,6.72
2022-12-06T07:48:28.606Z,6.97
2022-12-06T07:51:14.404Z,7.47
2022-12-06T07:54:00.665Z,7.47
2022-12-06T07:56:46.584Z,9.45
2022-12-06T07:59:32.448Z,8.13
2022-12-06T08:02:21.862Z,7.55
2022-12-06T08:05:07.916Z,7.10
2022-12-06T08:07:53.347Z,7.65
2022-12-06T08:10:38.870Z,6.82
2022-12-06T08:13:24.371Z,6.60
2022-12-06T08:16:15.464Z,7.53
2022-12-06T08:19:01.982Z,7.20
2022-12-06T08:21:48.580Z,7.15
2022-12-06T08:24:34.352Z,7.43
2022-12-06T08:27:20.628Z,7.95
2022-12-06T08:30:07.304Z,7.60
2022-12-06T08:32:56.985Z,8.80
2022-12-06T08:35:43.321Z,8.52
2022-12-06T08:38:28.976Z,8.43
2022-12-06T08:41:33.665Z,8.50
2022-12-06T08:44:20.058Z,9.07
2022-12-06T08:47:06.063Z,10.00
2022-12-06T08:49:51.844Z,9.73
2022-12-06T08:52:37.995Z,9.15
2022-12-06T08:55:23.768Z,10.05
2022-12-06T08:58:09.852Z,9.82
2022-12-06T09:00:55.477Z,8.75
2022-12-06T09:03:44.489Z,8.98
2022-12-06T09:06:30.502Z,10.35
2022-12-06T09:09:18.079Z,9.55
2022-12-06T09:12:03.897Z,9.65
2022-12-06T09:14:49.569Z,8.98
2022-12-06T09:17:35.934Z,9.48
2022-12-06T09:20:21.602Z,10.55
2022-12-06T09:23:07.544Z,9.63
2022-12-06T09:25:53.480Z,34.38
2022-12-06T09:28:41.366Z,11.30
2022-12-06T09:31:27.093Z,9.90
2022-12-06T09:34:13.074Z,10.73
2022-12-06T09:37:04.891Z,11.82
2022-12-06T09:39:56.210Z,9.55
2022-12-06T09:43:09.451Z,10.18
2022-12-06T09:45:58.338Z,8.38
2022-12-06T09:48:51.484Z,8.38
2022-12-06T09:51:55.401Z,19.00
2022-12-06T09:55:05.219Z,12.18
2022-12-06T09:57:56.712Z,9.90
2022-12-06T10:00:56.687Z,7.90
2022-12-06T10:03:49.529Z,8.35
2022-12-06T10:06:47.962Z,8.73
2022-12-06T10:09:39.391Z,7.78
2022-12-06T10:12:36.919Z,8.38
2022-12-06T10:15:32.452Z,7.75
2022-12-06T10:18:57.174Z,11.20
2022-12-06T10:22:20.487Z,7.85
2022-12-06T10:25:23.685Z,8.98
2022-12-06T10:28:37.009Z,7.55
2022-12-06T10:31:29.214Z,7.80
2022-12-06T10:34:15.195Z,7.30
2022-12-06T10:37:33.464Z,8.35
2022-12-06T10:40:38.704Z,8.98
2022-12-06T10:43:33.503Z,9.45
2022-12-06T10:46:41.411Z,9.55
2022-12-06T10:49:51.412Z,8.32
2022-12-06T10:52:39.952Z,7.82
2022-12-06T10:55:39.884Z,10.52
2022-12-06T10:58:32.822Z,8.98
2022-12-06T11:01:23.667Z,9.10
2022-12-06T11:04:26.195Z,8.65
2022-12-06T11:07:18.553Z,9.82
2022-12-06T11:10:20.396Z,9.15
2022-12-06T11:13:40.412Z,9.45
2022-12-06T11:16:46.963Z,10.70
2022-12-06T11:19:39.555Z,12.18
2022-12-06T11:23:06.652Z,13.15
2022-12-06T11:26:18.180Z,13.50
2022-12-06T11:29:06.186Z,14.50
2022-12-06T11:32:02.979Z,14.15
2022-12-06T11:34:57.817Z,13.80
2022-12-06T11:37:45.377Z,15.93
2022-12-06T11:40:35.880Z,16.15
2022-12-06T11:43:26.739Z,17.08
2022-12-06T11:46:15.061Z,16.75
2022-12-06T11:49:15.849Z,16.77
2022-12-06T11:52:08.821Z,17.50
2022-12-06T11:55:02.808Z,17.83
2022-12-06T11:58:09.694Z,16.90
2022-12-06T12:00:58.865Z,18.23
2022-12-06T12:03:47.477Z,19.52
2022-12-06T12:06:33.944Z,20.05
2022-12-06T12:09:21.087Z,19.55
2022-12-06T12:12:15.985Z,19.77
2022-12-06T12:15:02.050Z,20.30
2022-12-06T12:17:52.226Z,20.27
2022-12-06T12:20:40.407Z,18.45
2022-12-06T12:23:31.623Z,21.58
2022-12-06T12:26:18.466Z,19.90
2022-12-06T12:29:20.743Z,20.67
2022-12-06T12:32:11.511Z,21.88
2022-12-06T12:34:57.478Z,20.90
2022-12-06T12:37:43.306Z,20.88
2022-12-06T12:45:20.162Z,19.60
2022-12-06T12:48:27.432Z,21.95
2022-12-06T12:51:42.534Z,21.33
2022-12-06T12:54:35.101Z,23.80
2022-12-06T12:57:20.867Z,24.00
2022-12-06T13:00:11.341Z,24.73
2022-12-06T13:03:49.463Z,25.60
2022-12-06T13:06:36.095Z,21.67
2022-12-06T13:09:28.731Z,20.80
2022-12-06T13:12:33.891Z,19.58
2022-12-06T13:15:41.078Z,19.52
2022-12-06T13:18:40.956Z,17.20
2022-12-06T13:21:37.634Z,17.33
2022-12-06T13:24:30.917Z,17.65
2022-12-06T13:27:19.492Z,18.23
2022-12-06T13:30:17.585Z,18.33
2022-12-06T13:33:35.149Z,20.25
2022-12-06T13:36:21.751Z,20.75
2022-12-06T13:39:32.957Z,25.00
2022-12-06T13:42:37.139Z,20.88
2022-12-06T13:45:45.637Z,20.70
2022-12-06T13:48:43.092Z,20.52
2022-12-06T13:51:49.036Z,19.33
2022-12-06T13:54:34.608Z,22.85
2022-12-06T13:57:22.083Z,21.23
2022-12-06T14:00:30.115Z,20.83
2022-12-06T14:03:21.336Z,22.65
2022-12-06T14:06:15.653Z,22.77
2022-12-06T14:09:02.107Z,21.75
2022-12-06T14:11:49.036Z,23.20
2022-12-06T14:14:34.761Z,22.27
2022-12-06T14:17:38.411Z,24.65
2022-12-06T14:20:29.499Z,24.02
2022-12-06T14:23:31.384Z,23.40
2022-12-06T14:26:19.930Z,24.73
2022-12-06T14:29:19.809Z,25.83
2022-12-06T14:32:05.534Z,23.52
2022-12-06T14:35:01.064Z,23.55
2022-12-06T14:38:19.668Z,22.83
2022-12-06T14:41:23.926Z,25.15
2022-12-06T14:44:17.592Z,24.73
2022-12-06T14:47:03.330Z,24.95
2022-12-06T14:50:19.465Z,28.05
2022-12-06T14:53:11.404Z,27.50
2022-12-06T14:56:06.532Z,30.08
2022-12-06T14:58:52.339Z,26.02
2022-12-06T15:01:47.525Z,26.85
2022-12-06T15:04:39.956Z,25.33
2022-12-06T15:07:39.568Z,27.25
2022-12-06T15:10:32.276Z,25.17
2022-12-06T15:13:18.033Z,25.25
2022-12-06T15:16:06.816Z,26.60
2022-12-06T15:19:00.085Z,25.63
2022-12-06T15:21:45.590Z,26.45
2022-12-06T15:24:31.601Z,26.30
2022-12-06T15:27:21.793Z,30.70
2022-12-06T15:30:09.254Z,29.23
2022-12-06T15:32:55.998Z,28.50
2022-12-06T15:35:41.937Z,29.70
2022-12-06T15:38:27.487Z,26.27
2022-12-06T15:41:22.110Z,27.15
2022-12-06T15:44:15.580Z,27.38
2022-12-06T15:47:01.177Z,28.42
2022-12-06T15:49:46.957Z,28.85
2022-12-06T15:52:32.859Z,29.58
2022-12-06T15:55:19.797Z,30.63
2022-12-06T15:58:05.341Z,30.00
2022-12-06T16:00:50.879Z,31.30
2022-12-06T16:03:36.580Z,30.58
2022-12-06T16:06:23.656Z,31.70
2022-12-06T16:09:09.447Z,31.63
2022-12-06T16:11:56.529Z,30.38
2022-12-06T16:14:42.271Z,33.85
2022-12-06T16:17:27.513Z,33.85
2022-12-06T16:20:31.125Z,30.15
2022-12-06T16:24:11.264Z,28.67
2022-12-06T16:26:46.046Z,27.88
2022-12-06T16:29:31.518Z,26.65
2022-12-06T16:32:17.289Z,28.48
2022-12-06T16:35:03.293Z,26.83
2022-12-06T16:37:49.019Z,26.85
2022-12-06T16:40:34.705Z,27.27
2022-12-06T16:43:20.384Z,25.77
2022-12-06T16:46:36.687Z,26.75
2022-12-06T16:52:29.944Z,27.20
2022-12-06T16:55:15.777Z,25.92
2022-12-06T16:58:01.360Z,26.73
2022-12-06T17:00:46.983Z,25.92
2022-12-06T17:03:32.484Z,26.00
2022-12-06T17:06:18.403Z,27.83
2022-12-06T17:09:05.245Z,28.27
2022-12-06T17:12:03.066Z,29.60
2022-12-06T17:14:48.478Z,26.48
2022-12-06T17:17:33.984Z,27.00
2022-12-06T17:20:20.048Z,26.92
2022-12-06T17:23:05.528Z,27.90
2022-12-06T17:25:57.953Z,27.63
2022-12-06T17:28:44.730Z,32.05
2022-12-06T17:31:30.594Z,35.25
2022-12-06T17:34:16.457Z,35.20
2022-12-06T17:37:02.107Z,36.65
2022-12-06T17:39:48.574Z,34.05
2022-12-06T17:42:52.656Z,28.85
2022-12-06T17:45:38.422Z,28.67
2022-12-06T17:48:23.898Z,30.52
2022-12-06T17:51:09.803Z,31.55
2022-12-06T17:53:56.289Z,30.88
2022-12-06T17:56:44.336Z,30.23
2022-12-06T17:59:32.029Z,30.60
2022-12-06T18:02:20.269Z,30.10
2022-12-06T18:05:05.914Z,30.90
2022-12-06T18:07:51.339Z,29.25
2022-12-06T18:10:36.870Z,31.33
2022-12-06T18:13:22.227Z,30.17
2022-12-06T18:16:20.287Z,30.27
2022-12-06T18:19:13.651Z,35.83
2022-12-06T18:21:59.546Z,35.03
2022-12-06T18:24:45.168Z,33.20
2022-12-06T18:27:30.819Z,28.42
2022-12-06T18:30:16.468Z,28.20
2022-12-06T18:33:04.009Z,29.05
2022-12-06T18:35:54.970Z,30.00
2022-12-06T18:38:42.720Z,35.33
2022-12-06T18:41:31.454Z,31.67
2022-12-06T18:44:17.270Z,29.42
2022-12-06T18:47:02.955Z,31.38
2022-12-06T18:49:48.481Z,31.42
2022-12-06T18:52:35.300Z,29.75
2022-12-06T18:55:20.814Z,29.50
2022-12-06T18:58:06.312Z,25.90
2022-12-06T19:00:52.060Z,25.13
2022-12-06T19:03:37.943Z,23.83
2022-12-06T19:06:25.821Z,24.40
2022-12-06T19:09:14.358Z,23.65
2022-12-06T19:11:59.999Z,24.00
2022-12-06T19:14:45.586Z,24.33
2022-12-06T19:17:31.230Z,24.35
2022-12-06T19:20:17.013Z,22.58
2022-12-06T19:23:03.034Z,22.77
2022-12-06T19:25:48.556Z,32.05
2022-12-06T19:28:34.545Z,26.58
2022-12-06T19:31:22.957Z,23.77
2022-12-06T19:34:17.024Z,23.55
2022-12-06T19:37:02.921Z,23.98
2022-12-06T19:39:48.681Z,29.08
2022-12-06T19:42:53.261Z,31.80
2022-12-06T19:45:39.135Z,23.50
2022-12-06T19:48:24.842Z,21.25
2022-12-06T19:51:10.797Z,21.58
2022-12-06T19:53:58.044Z,24.27
2022-12-06T19:56:48.632Z,24.15
2022-12-06T19:59:35.969Z,25.40
2022-12-06T20:02:22.004Z,25.80
2022-12-06T20:05:08.086Z,29.70
2022-12-06T20:07:53.858Z,27.00
2022-12-06T20:10:40.229Z,23.65
2022-12-06T20:13:25.940Z,23.52
2022-12-06T20:16:11.651Z,21.65
2022-12-06T20:18:57.168Z,21.70
2022-12-06T20:21:44.466Z,20.15
2022-12-06T20:24:31.043Z,22.45
2022-12-06T20:27:16.799Z,21.10
2022-12-06T20:30:02.901Z,21.60
2022-12-06T20:32:49.734Z,21.40
2022-12-06T20:35:38.642Z,21.13
2022-12-06T20:38:25.332Z,20.90
2022-12-06T20:41:17.979Z,20.92
2022-12-06T20:44:04.596Z,21.23
2022-12-06T20:46:50.835Z,23.52
2022-12-06T20:49:36.701Z,24.23
2022-12-06T20:52:23.559Z,24.00
2022-12-06T20:55:10.869Z,25.95
2022-12-06T20:57:56.454Z,26.33
2022-12-06T21:00:43.960Z,26.33
2022-12-06T21:03:32.201Z,25.17
2022-12-06T21:06:19.963Z,25.48
2022-12-06T21:09:05.471Z,25.77
2022-12-06T21:11:51.487Z,27.25
2022-12-06T21:14:36.989Z,29.25
2022-12-06T21:17:22.657Z,30.55
2022-12-06T21:20:08.575Z,26.15
2022-12-06T21:22:54.121Z,24.48
2022-12-06T21:25:39.736Z,23.63
2022-12-06T21:28:25.096Z,25.77
2022-12-06T21:31:10.903Z,26.08
2022-12-06T21:33:56.590Z,26.25
2022-12-06T21:36:44.636Z,25.38
2022-12-06T21:39:30.676Z,25.83
2022-12-06T21:42:15.880Z,25.98
2022-12-06T21:45:01.476Z,25.13
2022-12-06T21:47:47.162Z,27.13
2022-12-06T21:50:32.872Z,26.27
2022-12-06T21:53:18.542Z,30.17
2022-12-06T21:56:14.569Z,33.10
2022-12-06T21:59:01.432Z,28.52
2022-12-06T22:01:50.250Z,29.23
2022-12-06T22:04:35.818Z,31.20
2022-12-06T22:07:21.498Z,32.92
2022-12-06T22:10:08.387Z,34.55
2022-12-06T22:12:54.168Z,36.35
2022-12-06T22:15:39.825Z,37.90
2022-12-06T22:18:25.338Z,28.98
2022-12-06T22:21:17.341Z,27.77
2022-12-06T22:24:03.453Z,28.02
2022-12-06T22:26:49.079Z,28.83
2022-12-06T22:29:34.562Z,29.17
2022-12-06T22:32:20.316Z,30.10
2022-12-06T22:35:06.269Z,30.70
2022-12-06T22:37:51.810Z,30.77
2022-12-06T22:40:37.421Z,30.33
2022-12-06T22:43:23.201Z,30.38
2022-12-06T22:46:14.902Z,29.92
2022-12-06T22:49:01.581Z,29.17
2022-12-06T22:51:47.012Z,26.48
2022-12-06T22:54:32.873Z,27.50
2022-12-06T22:57:18.807Z,28.73
2022-12-06T23:00:05.882Z,26.85
2022-12-06T23:02:51.579Z,25.80
2022-12-06T23:05:37.398Z,24.23
2022-12-06T23:08:23.092Z,23.52
2022-12-06T23:11:16.889Z,24.83
2022-12-06T23:14:04.475Z,22.58
2022-12-06T23:16:50.362Z,21.45
2022-12-06T23:19:35.818Z,21.40
2022-12-06T23:22:21.560Z,20.92
2022-12-06T23:25:07.785Z,21.13
2022-12-06T23:27:53.219Z,21.02
2022-12-06T23:30:38.803Z,21.88
2022-12-06T23:33:24.235Z,21.67
2022-12-06T23:36:12.676Z,23.08
2022-12-06T23:38:58.350Z,22.58
2022-12-06T23:41:44.356Z,22.58
2022-12-06T23:44:30.203Z,23.25
2022-12-06T23:47:15.720Z,25.88
2022-12-06T23:50:01.386Z,25.90
2022-12-06T23:52:47.429Z,24.52
2022-12-06T23:55:35.762Z,23.65
2022-12-06T23:58:21.153Z,24.45
